createdAt,value
2017-05-05T00:02:18.032Z,9.00
2017-05-05T00:04:46.355Z,9.00
2017-05-05T00:07:14.637Z,9.00
2017-05-05T00:09:42.927Z,9.00
2017-05-05T00:12:12.002Z,9.00
2017-05-05T00:14:40.291Z,9.00
2017-05-05T00:17:08.580Z,9.00
2017-05-05T00:19:37.654Z,8.90
2017-05-05T00:22:05.939Z,9.00
2017-05-05T00:24:34.226Z,8.90
2017-05-05T00:27:03.318Z,8.90
2017-05-05T00:29:32.359Z,8.90
2017-05-05T00:32:00.894Z,8.90
2017-05-05T00:34:29.951Z,8.90
2017-05-05T00:36:58.240Z,8.90
2017-05-05T00:39:26.523Z,8.90
2017-05-05T00:41:54.839Z,8.90
2017-05-05T00:44:23.131Z,8.90
2017-05-05T00:46:51.422Z,8.90
2017-05-05T00:49:19.742Z,8.90
2017-05-05T00:51:48.030Z,8.80
2017-05-05T00:54:17.054Z,8.80
2017-05-05T00:56:45.377Z,8.80
2017-05-05T00:59:13.668Z,8.80
2017-05-05T01:01:41.951Z,8.80
2017-05-05T01:04:10.285Z,8.70
2017-05-05T01:06:38.570Z,8.70
2017-05-05T01:09:06.855Z,8.70
2017-05-05T01:11:35.163Z,8.70
2017-05-05T01:14:03.455Z,8.80
2017-05-05T01:16:32.486Z,8.70
2017-05-05T01:19:00.807Z,8.80
2017-05-05T01:21:29.095Z,8.80
2017-05-05T01:23:58.131Z,8.80
2017-05-05T01:26:26.460Z,8.80
2017-05-05T01:28:54.751Z,8.80
2017-05-05T01:31:23.774Z,8.80
2017-05-05T01:33:52.091Z,8.80
2017-05-05T01:36:20.388Z,8.80
2017-05-05T01:38:48.683Z,8.80
2017-05-05T01:41:17.754Z,8.90
2017-05-05T01:43:46.043Z,8.90
2017-05-05T01:46:15.076Z,8.80
2017-05-05T01:48:43.403Z,8.80
2017-05-05T01:51:11.699Z,8.80
2017-05-05T01:53:40.726Z,8.80
2017-05-05T01:56:09.052Z,8.80
2017-05-05T01:58:37.355Z,8.80
2017-05-05T02:01:06.384Z,8.80
2017-05-05T02:03:34.706Z,8.80
2017-05-05T02:06:02.995Z,8.80
2017-05-05T02:08:32.032Z,8.80
2017-05-05T02:11:00.355Z,8.80
2017-05-05T02:13:28.643Z,8.80
2017-05-05T02:15:57.675Z,8.80
2017-05-05T02:18:26.004Z,8.80
2017-05-05T02:20:54.294Z,8.80
2017-05-05T02:23:23.324Z,8.80
2017-05-05T02:25:51.643Z,8.80
2017-05-05T02:28:19.935Z,8.80
2017-05-05T02:30:48.215Z,8.80
2017-05-05T02:33:16.550Z,8.70
2017-05-05T02:35:44.839Z,8.70
2017-05-05T02:38:13.127Z,8.60
2017-05-05T02:40:41.455Z,8.70
2017-05-05T02:43:09.749Z,8.70
2017-05-05T02:45:38.043Z,8.70
2017-05-05T02:48:06.363Z,8.60
2017-05-05T02:50:34.651Z,8.60
2017-05-05T02:53:03.684Z,8.50
2017-05-05T02:55:32.024Z,8.50
2017-05-05T02:58:01.055Z,8.50
2017-05-05T03:00:29.344Z,8.50
2017-05-05T03:02:57.684Z,8.40
2017-05-05T03:05:25.979Z,8.40
2017-05-05T03:07:54.272Z,8.40
2017-05-05T03:10:22.591Z,8.40
2017-05-05T03:12:51.621Z,8.40
2017-05-05T03:15:19.916Z,8.40
2017-05-05T03:17:48.241Z,8.40
2017-05-05T03:20:17.268Z,8.30
2017-05-05T03:22:45.562Z,8.40
2017-05-05T03:25:13.883Z,8.40
2017-05-05T03:27:42.169Z,8.40
2017-05-05T03:30:11.203Z,8.40
2017-05-05T03:32:39.547Z,8.50
2017-05-05T03:35:08.575Z,8.50
2017-05-05T03:37:36.868Z,8.50
2017-05-05T03:40:05.187Z,8.50
2017-05-05T03:42:33.472Z,8.50
2017-05-05T03:45:02.503Z,8.50
2017-05-05T03:47:30.822Z,8.50
2017-05-05T03:49:59.103Z,8.40
2017-05-05T03:52:27.399Z,8.30
2017-05-05T03:54:56.466Z,8.30
2017-05-05T03:57:24.759Z,8.30
2017-05-05T03:59:53.046Z,8.30
2017-05-05T04:02:22.108Z,8.30
2017-05-05T04:04:50.395Z,8.30
2017-05-05T04:07:18.680Z,8.30
2017-05-05T04:09:46.998Z,8.30
2017-05-05T04:12:15.286Z,8.30
2017-05-05T04:14:43.571Z,8.40
2017-05-05T04:17:11.891Z,8.40
2017-05-05T04:19:40.183Z,8.40
2017-05-05T04:22:09.211Z,8.40
2017-05-05T04:24:37.547Z,8.40
2017-05-05T04:27:05.838Z,8.40
2017-05-05T04:29:34.871Z,8.40
2017-05-05T04:32:03.183Z,8.40
2017-05-05T04:34:31.475Z,8.40
2017-05-05T04:36:59.766Z,8.40
2017-05-05T04:39:28.831Z,8.50
2017-05-05T04:41:57.124Z,8.50
2017-05-05T04:44:25.423Z,8.60
2017-05-05T04:46:54.482Z,8.60
2017-05-05T04:49:22.776Z,8.70
2017-05-05T04:51:51.062Z,8.80
2017-05-05T04:54:20.126Z,8.80
2017-05-05T04:56:48.416Z,8.90
2017-05-05T04:59:16.712Z,8.90
2017-05-05T05:01:45.775Z,9.00
2017-05-05T05:04:14.064Z,9.00
2017-05-05T05:06:42.548Z,9.00
2017-05-05T05:09:10.871Z,8.90
2017-05-05T05:11:39.163Z,9.00
2017-05-05T05:14:07.451Z,9.00
2017-05-05T05:16:35.767Z,9.00
2017-05-05T05:19:04.061Z,9.10
2017-05-05T05:21:33.090Z,9.10
2017-05-05T05:24:01.427Z,9.10
2017-05-05T05:26:30.459Z,9.10
2017-05-05T05:28:58.748Z,9.20
2017-05-05T05:31:27.082Z,9.20
2017-05-05T05:33:56.114Z,9.30
2017-05-05T05:36:24.403Z,9.40
2017-05-05T05:38:52.735Z,9.40
2017-05-05T05:41:21.762Z,9.40
2017-05-05T05:43:50.055Z,9.50
2017-05-05T05:46:18.422Z,9.50
2017-05-05T05:48:46.710Z,9.50
2017-05-05T05:51:15.003Z,9.50
2017-05-05T05:53:43.329Z,9.50
2017-05-05T05:56:11.619Z,9.50
2017-05-05T05:58:39.912Z,9.50
2017-05-05T06:01:08.244Z,9.40
2017-05-05T06:03:37.271Z,9.40
2017-05-05T06:06:05.567Z,9.50
2017-05-05T06:08:33.904Z,9.50
2017-05-05T06:11:02.200Z,9.60
2017-05-05T06:13:30.482Z,9.60
2017-05-05T06:15:58.806Z,9.60
2017-05-05T06:18:27.095Z,9.70
2017-05-05T06:20:56.545Z,9.70
2017-05-05T06:23:24.902Z,9.70
2017-05-05T06:25:53.193Z,9.70
2017-05-05T06:28:21.482Z,9.80
2017-05-05T06:30:49.814Z,9.80
2017-05-05T06:33:18.851Z,9.80
2017-05-05T06:35:47.141Z,9.90
2017-05-05T06:38:15.472Z,9.90
2017-05-05T06:40:44.511Z,10.00
2017-05-05T06:43:12.811Z,10.10
2017-05-05T06:45:41.147Z,10.20
2017-05-05T06:48:09.438Z,10.30
2017-05-05T06:50:37.734Z,10.50
2017-05-05T06:53:06.071Z,10.70
2017-05-05T06:55:34.367Z,10.90
2017-05-05T06:58:02.658Z,11.20
2017-05-05T07:00:30.970Z,11.30
2017-05-05T07:02:59.264Z,11.40
2017-05-05T07:05:28.327Z,11.50
2017-05-05T07:07:56.623Z,11.60
2017-05-05T07:10:24.923Z,11.80
2017-05-05T07:12:53.246Z,11.90
2017-05-05T07:15:21.545Z,12.00
2017-05-05T07:17:49.838Z,12.10
2017-05-05T07:20:18.895Z,11.90
2017-05-05T07:22:47.189Z,12.00
2017-05-05T07:25:15.486Z,12.00
2017-05-05T07:27:44.539Z,12.10
2017-05-05T07:30:12.831Z,12.00
2017-05-05T07:32:41.158Z,12.10
2017-05-05T07:35:09.450Z,12.10
2017-05-05T07:37:37.743Z,12.10
2017-05-05T07:40:06.062Z,12.10
2017-05-05T07:42:34.351Z,12.20
2017-05-05T07:45:03.384Z,12.30
2017-05-05T07:47:31.698Z,12.30
2017-05-05T07:49:59.994Z,12.40
2017-05-05T07:52:29.031Z,12.50
2017-05-05T07:54:57.348Z,12.50
2017-05-05T07:57:25.642Z,12.60
2017-05-05T07:59:54.680Z,12.70
2017-05-05T08:02:23.001Z,13.00
2017-05-05T08:04:51.282Z,13.10
2017-05-05T08:07:19.574Z,13.10
2017-05-05T08:09:48.630Z,13.10
2017-05-05T08:12:16.930Z,13.00
2017-05-05T08:14:45.259Z,13.00
2017-05-05T08:17:13.557Z,12.90
2017-05-05T08:19:41.846Z,12.80
2017-05-05T08:22:10.162Z,12.80
2017-05-05T08:24:39.185Z,12.80
2017-05-05T08:27:07.502Z,12.80
2017-05-05T08:29:35.791Z,12.90
2017-05-05T08:32:04.165Z,12.90
2017-05-05T08:34:32.487Z,13.00
2017-05-05T08:37:00.779Z,13.10
2017-05-05T08:39:29.098Z,13.30
2017-05-05T08:41:57.387Z,13.40
2017-05-05T08:44:25.679Z,13.50
2017-05-05T08:46:54.727Z,13.40
2017-05-05T08:49:23.024Z,13.50
2017-05-05T08:51:51.358Z,13.30
2017-05-05T08:54:19.651Z,13.30
2017-05-05T08:56:47.952Z,13.30
2017-05-05T08:59:16.272Z,13.50
2017-05-05T09:01:44.566Z,13.80
2017-05-05T09:04:12.897Z,14.10
2017-05-05T09:06:41.195Z,14.10
2017-05-05T09:09:09.487Z,14.00
2017-05-05T09:11:37.798Z,14.00
2017-05-05T09:14:06.092Z,14.10
2017-05-05T09:16:34.415Z,14.00
2017-05-05T09:19:03.442Z,14.00
2017-05-05T09:21:31.732Z,14.00
2017-05-05T09:24:00.048Z,14.00
2017-05-05T09:26:29.086Z,13.90
2017-05-05T09:28:57.403Z,13.90
2017-05-05T09:31:25.694Z,14.00
2017-05-05T09:33:54.727Z,14.00
2017-05-05T09:36:23.034Z,14.30
2017-05-05T09:38:51.324Z,14.70
2017-05-05T09:41:19.682Z,14.50
2017-05-05T09:43:47.966Z,14.50
2017-05-05T09:46:16.256Z,14.60
2017-05-05T09:48:44.563Z,14.70
2017-05-05T09:51:13.662Z,14.50
2017-05-05T09:53:42.825Z,14.50
2017-05-05T09:56:11.115Z,14.50
2017-05-05T09:58:39.404Z,14.40
2017-05-05T10:01:08.460Z,14.20
2017-05-05T10:03:36.755Z,14.20
2017-05-05T10:06:05.100Z,14.00
2017-05-05T10:08:33.405Z,14.00
2017-05-05T10:11:01.699Z,14.00
2017-05-05T10:13:30.016Z,14.00
2017-05-05T10:15:58.303Z,14.00
2017-05-05T10:18:26.626Z,14.30
2017-05-05T10:20:54.930Z,14.70
2017-05-05T10:23:23.238Z,15.20
2017-05-05T10:25:51.557Z,15.80
2017-05-05T10:28:19.842Z,16.40
2017-05-05T10:30:48.144Z,16.60
2017-05-05T10:33:16.470Z,16.70
2017-05-05T10:35:44.786Z,16.90
2017-05-05T10:38:13.818Z,17.30
2017-05-05T10:40:42.138Z,17.60
2017-05-05T10:43:10.430Z,18.00
2017-05-05T10:45:38.726Z,18.30
2017-05-05T10:48:07.790Z,18.20
2017-05-05T10:50:36.082Z,18.60
2017-05-05T10:53:04.379Z,18.70
2017-05-05T10:55:33.436Z,19.00
2017-05-05T10:58:01.732Z,18.60
2017-05-05T11:00:30.027Z,18.60
2017-05-05T11:02:59.101Z,18.60
2017-05-05T11:05:27.393Z,18.60
2017-05-05T11:07:56.431Z,18.70
2017-05-05T11:10:24.756Z,18.50
2017-05-05T11:12:53.046Z,18.30
2017-05-05T11:15:22.078Z,18.30
2017-05-05T11:17:50.394Z,18.60
2017-05-05T11:20:18.683Z,19.00
2017-05-05T11:22:47.722Z,18.90
2017-05-05T11:25:16.042Z,18.70
2017-05-05T11:27:44.335Z,18.20
2017-05-05T11:30:13.368Z,17.80
2017-05-05T11:32:41.686Z,17.50
2017-05-05T11:35:09.975Z,17.20
2017-05-05T11:37:38.263Z,17.10
2017-05-05T11:40:07.330Z,17.00
2017-05-05T11:42:35.625Z,17.00
2017-05-05T11:45:03.920Z,16.60
2017-05-05T11:47:32.990Z,16.40
2017-05-05T11:50:01.279Z,16.10
2017-05-05T11:52:29.570Z,15.90
2017-05-05T11:54:58.627Z,15.70
2017-05-05T11:57:26.912Z,15.80
2017-05-05T11:59:58.669Z,15.70
2017-05-05T12:02:27.175Z,15.50
2017-05-05T12:04:56.218Z,15.30
2017-05-05T12:07:25.468Z,15.40
2017-05-05T12:09:53.873Z,15.40
2017-05-05T12:12:22.161Z,15.40
2017-05-05T12:14:50.454Z,15.40
2017-05-05T12:17:18.771Z,15.30
2017-05-05T12:19:47.063Z,15.30
2017-05-05T12:22:15.355Z,15.20
2017-05-05T12:24:44.431Z,15.10
2017-05-05T12:27:12.723Z,14.80
2017-05-05T12:29:41.761Z,14.60
2017-05-05T12:32:10.075Z,14.60
2017-05-05T12:34:38.366Z,14.60
2017-05-05T12:37:07.396Z,14.50
2017-05-05T12:39:35.725Z,14.60
2017-05-05T12:42:04.025Z,14.60
2017-05-05T12:44:33.055Z,14.50
2017-05-05T12:47:01.383Z,14.50
2017-05-05T12:49:29.675Z,14.50
2017-05-05T12:51:58.702Z,14.60
2017-05-05T12:54:27.030Z,14.50
2017-05-05T12:56:55.327Z,14.40
2017-05-05T12:59:24.354Z,14.40
2017-05-05T13:01:52.680Z,14.50
2017-05-05T13:04:20.967Z,14.70
2017-05-05T13:06:49.259Z,14.80
2017-05-05T13:09:17.586Z,14.90
2017-05-05T13:11:45.880Z,15.00
2017-05-05T13:14:14.176Z,15.20
2017-05-05T13:16:43.246Z,15.20
2017-05-05T13:19:11.535Z,15.20
2017-05-05T13:21:39.827Z,15.50
2017-05-05T13:24:08.880Z,15.70
2017-05-05T13:26:37.172Z,15.90
2017-05-05T13:29:05.863Z,15.90
2017-05-05T13:31:34.186Z,15.90
2017-05-05T13:34:02.474Z,15.90
2017-05-05T13:36:30.759Z,15.90
2017-05-05T13:38:59.080Z,15.90
2017-05-05T13:41:27.372Z,15.90
2017-05-05T13:43:56.402Z,15.80
2017-05-05T13:46:24.728Z,15.80
2017-05-05T13:48:53.019Z,15.70
2017-05-05T13:51:21.307Z,15.60
2017-05-05T13:53:50.370Z,15.50
2017-05-05T13:56:18.655Z,15.50
2017-05-05T13:58:46.947Z,15.40
2017-05-05T14:01:15.276Z,15.30
2017-05-05T14:03:44.307Z,15.10
2017-05-05T14:06:12.601Z,15.10
2017-05-05T14:08:40.919Z,15.20
2017-05-05T14:11:09.954Z,15.10
2017-05-05T14:13:38.247Z,15.10
2017-05-05T14:16:06.558Z,15.00
2017-05-05T14:18:34.846Z,15.00
2017-05-05T14:21:03.875Z,15.00
2017-05-05T14:23:32.200Z,15.00
2017-05-05T14:26:00.490Z,14.90
2017-05-05T14:28:29.522Z,14.70
2017-05-05T14:30:57.831Z,14.60
2017-05-05T14:33:26.131Z,14.50
2017-05-05T14:35:54.442Z,14.40
2017-05-05T14:38:22.741Z,14.40
2017-05-05T14:40:51.073Z,14.40
2017-05-05T14:43:19.371Z,14.30
2017-05-05T14:45:48.394Z,14.40
2017-05-05T14:48:16.718Z,14.40
2017-05-05T14:50:45.058Z,14.30
2017-05-05T14:53:13.347Z,14.30
2017-05-05T14:55:41.662Z,14.30
2017-05-05T14:58:10.695Z,14.20
2017-05-05T15:00:38.984Z,14.20
2017-05-05T15:03:07.300Z,14.20
2017-05-05T15:05:35.593Z,14.20
2017-05-05T15:08:04.620Z,14.10
2017-05-05T15:10:32.947Z,14.10
2017-05-05T15:13:01.238Z,14.10
2017-05-05T15:15:30.267Z,14.10
2017-05-05T15:17:58.591Z,14.10
2017-05-05T15:20:26.884Z,14.00
2017-05-05T15:22:55.918Z,14.00
2017-05-05T15:25:24.237Z,14.10
2017-05-05T15:27:52.526Z,14.10
2017-05-05T15:30:21.559Z,14.00
2017-05-05T15:32:49.871Z,14.00
2017-05-05T15:35:18.165Z,14.00
2017-05-05T15:37:46.455Z,13.90
2017-05-05T15:40:15.515Z,13.90
2017-05-05T15:42:43.802Z,13.90
2017-05-05T15:45:12.095Z,13.90
2017-05-05T15:47:40.411Z,14.10
2017-05-05T15:50:08.699Z,14.00
2017-05-05T15:52:36.990Z,14.00
2017-05-05T15:55:05.328Z,14.00
2017-05-05T15:57:34.362Z,14.00
2017-05-05T16:00:02.690Z,14.10
2017-05-05T16:02:31.770Z,14.10
2017-05-05T16:05:00.058Z,14.10
2017-05-05T16:07:29.087Z,14.10
2017-05-05T16:09:57.407Z,14.20
2017-05-05T16:12:26.438Z,14.10
2017-05-05T16:14:54.729Z,14.10
2017-05-05T16:17:23.055Z,14.10
2017-05-05T16:19:52.082Z,14.00
2017-05-05T16:22:20.372Z,14.00
2017-05-05T16:24:48.701Z,13.90
2017-05-05T16:27:17.726Z,13.80
2017-05-05T16:29:46.015Z,13.80
2017-05-05T16:32:14.303Z,13.80
2017-05-05T16:34:42.595Z,13.70
2017-05-05T16:37:10.887Z,13.70
2017-05-05T16:39:39.182Z,13.60
2017-05-05T16:42:07.470Z,13.60
2017-05-05T16:44:36.504Z,13.50
2017-05-05T16:47:05.539Z,13.40
2017-05-05T16:49:33.832Z,13.40
2017-05-05T16:52:02.126Z,13.30
2017-05-05T16:54:30.420Z,13.30
2017-05-05T16:56:59.456Z,13.30
2017-05-05T16:59:27.739Z,13.30
2017-05-05T17:01:56.032Z,13.30
2017-05-05T17:04:24.326Z,13.20
2017-05-05T17:06:52.623Z,13.10
2017-05-05T17:09:20.921Z,13.10
2017-05-05T17:11:49.951Z,13.00
2017-05-05T17:14:18.287Z,13.00
2017-05-05T17:16:47.320Z,13.00
2017-05-05T17:19:15.612Z,12.90
2017-05-05T17:21:43.898Z,12.90
2017-05-05T17:24:12.188Z,12.80
2017-05-05T17:26:40.508Z,12.80
2017-05-05T17:29:08.800Z,12.70
2017-05-05T17:31:37.092Z,12.70
2017-05-05T17:34:05.379Z,12.70
2017-05-05T17:36:33.667Z,12.60
2017-05-05T17:39:01.952Z,12.60
2017-05-05T17:41:30.245Z,12.60
2017-05-05T17:43:58.540Z,12.50
2017-05-05T17:46:26.831Z,12.50
2017-05-05T17:48:55.123Z,12.50
2017-05-05T17:51:23.414Z,12.40
2017-05-05T17:53:51.706Z,12.40
2017-05-05T17:56:20.006Z,12.40
2017-05-05T17:58:49.067Z,12.30
2017-05-05T18:01:17.364Z,12.30
2017-05-05T18:03:46.400Z,12.30
2017-05-05T18:06:14.691Z,12.20
2017-05-05T18:08:42.978Z,12.20
2017-05-05T18:11:11.271Z,12.10
2017-05-05T18:13:39.571Z,12.10
2017-05-05T18:16:08.602Z,12.00
2017-05-05T18:18:36.889Z,11.90
2017-05-05T18:21:05.179Z,11.90
2017-05-05T18:23:33.475Z,11.80
2017-05-05T18:26:01.770Z,11.80
2017-05-05T18:28:30.803Z,11.70
2017-05-05T18:30:59.086Z,11.60
2017-05-05T18:33:27.381Z,11.60
2017-05-05T18:35:55.671Z,11.60
2017-05-05T18:38:23.958Z,11.50
2017-05-05T18:40:52.284Z,11.50
2017-05-05T18:43:20.581Z,11.50
2017-05-05T18:45:48.866Z,11.50
2017-05-05T18:48:17.157Z,11.50
2017-05-05T18:50:45.450Z,11.40
2017-05-05T18:53:14.480Z,11.40
2017-05-05T18:55:42.771Z,11.30
2017-05-05T18:58:11.063Z,11.30
2017-05-05T19:00:39.386Z,11.20
2017-05-05T19:03:08.446Z,11.20
2017-05-05T19:05:36.734Z,11.10
2017-05-05T19:08:05.022Z,11.10
2017-05-05T19:10:34.059Z,11.00
2017-05-05T19:13:02.351Z,10.90
2017-05-05T19:15:30.644Z,10.80
2017-05-05T19:17:58.936Z,10.80
2017-05-05T19:20:27.228Z,10.70
2017-05-05T19:22:55.520Z,10.60
2017-05-05T19:25:23.811Z,10.50
2017-05-05T19:27:52.105Z,10.40
2017-05-05T19:30:21.139Z,10.30
2017-05-05T19:32:49.431Z,10.20
2017-05-05T19:35:17.726Z,10.10
2017-05-05T19:37:46.019Z,10.00
2017-05-05T19:40:14.311Z,9.90
2017-05-05T19:42:42.605Z,9.80
2017-05-05T19:45:10.925Z,9.70
2017-05-05T19:47:39.219Z,9.60
2017-05-05T19:50:07.508Z,9.50
2017-05-05T19:52:35.800Z,9.40
2017-05-05T19:55:04.089Z,9.30
2017-05-05T19:57:32.379Z,9.20
2017-05-05T20:00:00.663Z,9.20
2017-05-05T20:02:28.955Z,9.10
2017-05-05T20:04:57.247Z,9.10
2017-05-05T20:07:25.577Z,9.10
2017-05-05T20:09:53.867Z,9.00
2017-05-05T20:12:22.159Z,9.10
2017-05-05T20:14:50.450Z,9.10
2017-05-05T20:17:18.738Z,9.00
2017-05-05T20:19:47.030Z,8.90
2017-05-05T20:22:15.319Z,8.60
2017-05-05T20:24:43.611Z,8.50
2017-05-05T20:27:11.906Z,8.40
2017-05-05T20:29:40.194Z,8.30
2017-05-05T20:32:08.478Z,8.20
2017-05-05T20:34:36.767Z,8.20
2017-05-05T20:37:05.064Z,8.20
2017-05-05T20:39:34.122Z,8.10
2017-05-05T20:42:02.406Z,8.10
2017-05-05T20:44:30.694Z,8.10
2017-05-05T20:46:59.002Z,8.10
2017-05-05T20:49:27.300Z,7.90
2017-05-05T20:51:55.623Z,7.80
2017-05-05T20:54:23.915Z,7.70
2017-05-05T20:56:52.945Z,7.70
2017-05-05T20:59:21.260Z,7.60
2017-05-05T21:01:49.550Z,7.60
2017-05-05T21:04:17.843Z,7.60
2017-05-05T21:06:46.911Z,7.50
2017-05-05T21:09:15.199Z,7.50
2017-05-05T21:11:43.483Z,7.50
2017-05-05T21:14:11.797Z,7.50
2017-05-05T21:16:40.087Z,7.40
2017-05-05T21:19:08.379Z,7.40
2017-05-05T21:21:36.697Z,7.40
2017-05-05T21:24:05.728Z,7.40
2017-05-05T21:26:34.023Z,7.30
2017-05-05T21:29:02.330Z,7.30
2017-05-05T21:31:30.620Z,7.30
2017-05-05T21:33:58.935Z,7.20
2017-05-05T21:36:27.223Z,7.00
2017-05-05T21:38:55.510Z,7.00
2017-05-05T21:41:23.840Z,6.90
2017-05-05T21:43:52.870Z,6.70
2017-05-05T21:46:21.158Z,6.60
2017-05-05T21:48:49.478Z,6.50
2017-05-05T21:51:17.768Z,6.40
2017-05-05T21:53:46.803Z,6.30
2017-05-05T21:56:15.411Z,6.20
2017-05-05T21:58:43.699Z,6.30
2017-05-05T22:01:11.991Z,6.30
2017-05-05T22:03:40.315Z,6.30
2017-05-05T22:06:08.607Z,6.30
2017-05-05T22:08:36.898Z,6.30
2017-05-05T22:11:05.211Z,6.30
2017-05-05T22:13:34.245Z,6.40
2017-05-05T22:16:02.535Z,6.40
2017-05-05T22:18:30.861Z,6.40
2017-05-05T22:20:59.891Z,6.40
2017-05-05T22:23:28.197Z,6.40
2017-05-05T22:25:56.530Z,6.40
2017-05-05T22:28:24.820Z,6.40
2017-05-05T22:30:53.137Z,6.30
2017-05-05T22:33:21.462Z,6.30
2017-05-05T22:35:49.769Z,6.20
2017-05-05T22:38:18.083Z,6.00
2017-05-05T22:40:46.417Z,6.00
2017-05-05T22:43:14.724Z,5.90
2017-05-05T22:45:43.046Z,5.90
2017-05-05T22:48:11.406Z,5.90
2017-05-05T22:50:40.435Z,5.80
2017-05-05T22:53:08.737Z,5.80
2017-05-05T22:55:37.083Z,5.80
2017-05-05T22:58:05.383Z,5.80
2017-05-05T23:00:33.686Z,5.70
2017-05-05T23:03:02.037Z,5.50
2017-05-05T23:05:30.354Z,5.40
2017-05-05T23:07:58.649Z,5.30
2017-05-05T23:10:27.741Z,5.30
2017-05-05T23:12:56.823Z,5.30
2017-05-05T23:15:25.137Z,5.30
2017-05-05T23:17:53.494Z,5.20
2017-05-05T23:20:22.550Z,5.10
2017-05-05T23:22:50.867Z,5.10
2017-05-05T23:25:19.971Z,4.90
2017-05-05T23:27:49.022Z,4.90
2017-05-05T23:30:17.319Z,4.90
2017-05-05T23:32:45.670Z,5.00
2017-05-05T23:35:13.977Z,5.00
2017-05-05T23:37:42.274Z,4.90
2017-05-05T23:40:10.622Z,4.90
2017-05-05T23:42:38.923Z,5.00
2017-05-05T23:45:07.235Z,4.90
2017-05-05T23:47:35.593Z,4.80
2017-05-05T23:50:03.895Z,4.70
2017-05-05T23:52:32.187Z,4.60
2017-05-05T23:55:01.266Z,4.60
2017-05-05T23:57:29.559Z,4.60
2017-05-05T23:59:58.609Z,4.50
